BAW9006 EGSH-EGSS
Flight info
| Callsign | BAW9006 |
|---|---|
| Flight time | 0h 21m |
| Altitude | 16000 |
| Route | LAPRA DCT ABBOT |
| Aircraft | A20N/M-VGDW/C |
Departure
| Time | 2026-05-06 20:31 |
|---|---|
| Airport | Norwich Airport (EGSH) |
Arrival
| Time | 2026-05-06 20:53 |
|---|---|
| Airport | London Stansted Airport (EGSS) |
| Time | Latitude | Longitude | Altitude | Speed | Heading |
|---|---|---|---|---|---|
| 2026-05-06 20:31 | 52.61720 | 1.32946 | 4369 ft | 253 kts | 189° |
| 2026-05-06 20:31 | 52.59968 | 1.32408 | 5151 ft | 266 kts | 188° |
| 2026-05-06 20:31 | 52.58133 | 1.31902 | 6098 ft | 274 kts | 188° |
| 2026-05-06 20:31 | 52.56271 | 1.31422 | 7124 ft | 278 kts | 188° |
| 2026-05-06 20:32 | 52.54362 | 1.30948 | 8145 ft | 282 kts | 188° |
| 2026-05-06 20:32 | 52.52424 | 1.30479 | 9034 ft | 288 kts | 188° |
| 2026-05-06 20:32 | 52.50420 | 1.29998 | 9109 ft | 288 kts | 188° |
| 2026-05-06 20:32 | 52.48449 | 1.29529 | 9053 ft | 287 kts | 188° |
| 2026-05-06 20:33 | 52.46478 | 1.29063 | 9046 ft | 287 kts | 188° |
| 2026-05-06 20:33 | 52.44504 | 1.28598 | 9045 ft | 287 kts | 188° |
| 2026-05-06 20:33 | 52.42553 | 1.28139 | 9025 ft | 287 kts | 188° |
| 2026-05-06 20:33 | 52.40554 | 1.27670 | 9021 ft | 287 kts | 188° |
| 2026-05-06 20:34 | 52.38607 | 1.27213 | 9028 ft | 287 kts | 188° |
| 2026-05-06 20:34 | 52.36642 | 1.26684 | 9025 ft | 286 kts | 195° |
| 2026-05-06 20:34 | 52.34924 | 1.25075 | 9020 ft | 285 kts | 225° |
| 2026-05-06 20:34 | 52.33664 | 1.22608 | 9028 ft | 284 kts | 234° |
| 2026-05-06 20:35 | 52.32492 | 1.19999 | 9018 ft | 284 kts | 234° |
| 2026-05-06 20:35 | 52.31307 | 1.17419 | 9010 ft | 284 kts | 233° |
| 2026-05-06 20:35 | 52.30104 | 1.14906 | 9002 ft | 284 kts | 232° |
| 2026-05-06 20:35 | 52.28861 | 1.12387 | 8996 ft | 284 kts | 232° |
| 2026-05-06 20:36 | 52.27616 | 1.09914 | 9006 ft | 284 kts | 231° |
| 2026-05-06 20:36 | 52.26343 | 1.07415 | 9004 ft | 284 kts | 231° |
| 2026-05-06 20:36 | 52.25074 | 1.04942 | 8998 ft | 284 kts | 231° |
| 2026-05-06 20:36 | 52.23807 | 1.02482 | 9001 ft | 284 kts | 231° |
| 2026-05-06 20:37 | 52.22527 | 1.00008 | 9006 ft | 284 kts | 231° |
| 2026-05-06 20:37 | 52.21265 | 0.97569 | 9000 ft | 284 kts | 231° |
| 2026-05-06 20:37 | 52.19996 | 0.95124 | 9001 ft | 284 kts | 231° |
| 2026-05-06 20:37 | 52.18715 | 0.92654 | 9004 ft | 284 kts | 231° |
| 2026-05-06 20:38 | 52.17436 | 0.90193 | 9004 ft | 285 kts | 231° |
| 2026-05-06 20:38 | 52.16161 | 0.87743 | 9010 ft | 285 kts | 231° |
| 2026-05-06 20:38 | 52.14871 | 0.85266 | 9009 ft | 285 kts | 231° |
| 2026-05-06 20:38 | 52.13592 | 0.82816 | 9011 ft | 285 kts | 231° |
| 2026-05-06 20:39 | 52.12321 | 0.80383 | 9011 ft | 285 kts | 231° |
| 2026-05-06 20:39 | 52.11026 | 0.77905 | 9014 ft | 285 kts | 231° |
| 2026-05-06 20:39 | 52.09759 | 0.75484 | 9012 ft | 285 kts | 231° |
| 2026-05-06 20:39 | 52.08481 | 0.73041 | 9030 ft | 285 kts | 231° |
| 2026-05-06 20:40 | 52.07188 | 0.70575 | 9012 ft | 285 kts | 231° |
| 2026-05-06 20:40 | 52.05911 | 0.68138 | 9003 ft | 285 kts | 231° |
| 2026-05-06 20:40 | 52.04669 | 0.65668 | 9004 ft | 284 kts | 238° |
| 2026-05-06 20:40 | 52.03789 | 0.62788 | 9008 ft | 283 kts | 249° |
| 2026-05-06 20:41 | 52.03090 | 0.59827 | 9022 ft | 283 kts | 251° |
| 2026-05-06 20:41 | 52.02417 | 0.56828 | 9042 ft | 283 kts | 251° |
| 2026-05-06 20:41 | 52.01747 | 0.53807 | 9010 ft | 283 kts | 251° |
| 2026-05-06 20:41 | 52.01086 | 0.50830 | 8918 ft | 279 kts | 251° |
| 2026-05-06 20:42 | 52.00436 | 0.47896 | 8544 ft | 280 kts | 251° |
| 2026-05-06 20:42 | 51.99778 | 0.44904 | 8137 ft | 280 kts | 251° |
| 2026-05-06 20:42 | 51.99138 | 0.41976 | 7770 ft | 279 kts | 251° |
| 2026-05-06 20:42 | 51.98492 | 0.38997 | 7414 ft | 277 kts | 252° |
| 2026-05-06 20:43 | 51.97858 | 0.36071 | 7071 ft | 276 kts | 251° |
| 2026-05-06 20:43 | 51.97235 | 0.33175 | 6761 ft | 275 kts | 251° |
| 2026-05-06 20:43 | 51.96612 | 0.30258 | 6404 ft | 273 kts | 251° |
| 2026-05-06 20:43 | 51.95996 | 0.27345 | 6082 ft | 272 kts | 251° |
| 2026-05-06 20:44 | 51.95388 | 0.24452 | 5990 ft | 272 kts | 251° |
| 2026-05-06 20:44 | 51.94782 | 0.21555 | 5985 ft | 272 kts | 251° |
| 2026-05-06 20:44 | 51.94178 | 0.18657 | 5820 ft | 269 kts | 251° |
| 2026-05-06 20:44 | 51.93587 | 0.15810 | 5424 ft | 270 kts | 251° |
| 2026-05-06 20:45 | 51.92980 | 0.12903 | 5062 ft | 270 kts | 250° |
| 2026-05-06 20:45 | 51.92097 | 0.10252 | 4696 ft | 269 kts | 227° |
| 2026-05-06 20:45 | 51.90675 | 0.08356 | 4397 ft | 267 kts | 213° |
| 2026-05-06 20:45 | 51.89129 | 0.06702 | 4085 ft | 266 kts | 211° |
| 2026-05-06 20:46 | 51.87579 | 0.05098 | 3756 ft | 265 kts | 211° |
| 2026-05-06 20:46 | 51.86039 | 0.03512 | 3429 ft | 264 kts | 211° |
| 2026-05-06 20:46 | 51.84495 | 0.01923 | 3237 ft | 258 kts | 211° |
| 2026-05-06 20:46 | 51.83007 | 0.00397 | 3071 ft | 251 kts | 211° |
| 2026-05-06 20:47 | 51.81547 | -0.01096 | 2994 ft | 241 kts | 211° |
| 2026-05-06 20:47 | 51.80087 | -0.02186 | 2978 ft | 225 kts | 187° |
| 2026-05-06 20:47 | 51.78629 | -0.01948 | 2983 ft | 206 kts | 153° |
| 2026-05-06 20:47 | 51.77431 | -0.00837 | 2991 ft | 194 kts | 143° |
| 2026-05-06 20:48 | 51.76337 | 0.00423 | 2986 ft | 193 kts | 136° |
| 2026-05-06 20:48 | 51.75631 | 0.02175 | 2983 ft | 188 kts | 99° |
| 2026-05-06 20:48 | 51.75772 | 0.04210 | 2981 ft | 186 kts | 62° |
| 2026-05-06 20:48 | 51.76585 | 0.05852 | 2987 ft | 187 kts | 44° |
| 2026-05-06 20:49 | 51.77567 | 0.07213 | 2984 ft | 187 kts | 41° |
| 2026-05-06 20:49 | 51.78566 | 0.08580 | 2815 ft | 187 kts | 42° |
| 2026-05-06 20:49 | 51.79522 | 0.09964 | 2653 ft | 182 kts | 44° |
| 2026-05-06 20:49 | 51.80436 | 0.11334 | 2372 ft | 181 kts | 44° |
| 2026-05-06 20:50 | 51.81350 | 0.12718 | 2100 ft | 179 kts | 45° |
| 2026-05-06 20:50 | 51.82216 | 0.14023 | 1842 ft | 168 kts | 44° |
| 2026-05-06 20:50 | 51.83036 | 0.15259 | 1609 ft | 158 kts | 44° |
| 2026-05-06 20:50 | 51.83820 | 0.16441 | 1398 ft | 150 kts | 44° |
| 2026-05-06 20:51 | 51.84553 | 0.17545 | 1225 ft | 140 kts | 43° |
| 2026-05-06 20:51 | 51.85249 | 0.18593 | 1030 ft | 131 kts | 43° |
| 2026-05-06 20:51 | 51.85899 | 0.19571 | 855 ft | 127 kts | 42° |
| 2026-05-06 20:51 | 51.86536 | 0.20530 | 691 ft | 126 kts | 42° |
| 2026-05-06 20:52 | 51.87179 | 0.21502 | 513 ft | 125 kts | 41° |
| 2026-05-06 20:52 | 51.87819 | 0.22470 | 353 ft | 126 kts | 41° |
| 2026-05-06 20:52 | 51.88422 | 0.23357 | 342 ft | 103 kts | 45° |
| 2026-05-06 20:52 | 51.88823 | 0.23958 | 342 ft | 54 kts | 47° |
| 2026-05-06 20:53 | 51.89034 | 0.24309 | 342 ft | 35 kts | 58° |
| 2026-05-06 20:53 | 51.89120 | 0.24609 | 342 ft | 24 kts | 68° |
| 2026-05-06 20:53 | 51.89169 | 0.24815 | 342 ft | 14 kts | 82° |
| 2026-05-06 20:53 | 51.89129 | 0.24896 | 342 ft | 7 kts | 193° |
| 2026-05-06 20:54 | 51.89097 | 0.24861 | 342 ft | 5 kts | 220° |
| 2026-05-06 20:54 | 51.89058 | 0.24825 | 342 ft | 7 kts | 185° |
| 2026-05-06 20:54 | 51.89022 | 0.24848 | 342 ft | 0 kts | 142° |
| 2026-05-06 20:55 | 51.89019 | 0.24852 | 342 ft | 1 kts | 140° |
| 2026-05-06 20:55 | 51.89004 | 0.24876 | 342 ft | 4 kts | 130° |
| 2026-05-06 20:55 | 51.88975 | 0.24911 | 342 ft | 6 kts | 165° |
| 2026-05-06 20:55 | 51.88925 | 0.24896 | 342 ft | 8 kts | 209° |
| 2026-05-06 20:56 | 51.88876 | 0.24826 | 342 ft | 10 kts | 224° |
| 2026-05-06 20:56 | 51.88818 | 0.24735 | 342 ft | 12 kts | 225° |
| 2026-05-06 20:56 | 51.88749 | 0.24638 | 342 ft | 14 kts | 221° |
| 2026-05-06 20:56 | 51.88674 | 0.24523 | 342 ft | 15 kts | 223° |
| 2026-05-06 20:57 | 51.88593 | 0.24402 | 342 ft | 16 kts | 207° |
| 2026-05-06 20:57 | 51.88544 | 0.24493 | 342 ft | 16 kts | 45° |
| 2026-05-06 20:57 | 51.88559 | 0.24515 | 342 ft | 0 kts | 44° |